Time;durP1;ratioP1;P1;durP2;ratioP2;P2;SDS_P1;SDS_P2;PMS_P1;PMS_P2;Temp;Humidity;BMP_temperature;BMP_pressure;BME280_temperature;BME280_humidity;BME280_pressure;Samples;Min_cycle;Max_cycle;Signal;HPM_P1;HPM_P2
2022/11/24 00:01:33;;;;;;;77.60;31.60;;;;;;;-0.63;90.07;99527.94;103189;1275;23754;-59
2022/11/24 00:04:06;;;;;;;81.60;32.70;;;;;;;-0.65;89.96;99529.94;103197;1306;24071;-59
2022/11/24 00:06:38;;;;;;;73.80;31.50;;;;;;;-0.66;89.98;99532.15;103061;1306;25593;-61
2022/11/24 00:09:10;;;;;;;84.50;33.80;;;;;;;-0.67;89.97;99529.59;103167;1298;24651;-58
2022/11/24 00:11:42;;;;;;;76.80;31.80;;;;;;;-0.71;89.76;99531.77;103117;1282;25425;-62
2022/11/24 00:14:13;;;;;;;80.80;32.70;;;;;;;-0.73;89.80;99531.11;103150;1274;22466;-59
2022/11/24 00:16:45;;;;;;;70.30;31.50;;;;;;;-0.76;89.89;99530.29;103258;1305;22470;-59
2022/11/24 00:19:18;;;;;;;72.60;29.70;;;;;;;-0.77;89.95;99531.89;103216;1300;25281;-57
2022/11/24 00:21:50;;;;;;;72.60;32.30;;;;;;;-0.78;89.93;99532.61;103188;1294;22476;-58
2022/11/24 00:24:21;;;;;;;74.30;31.10;;;;;;;-0.79;89.85;99531.46;103107;1282;25297;-60
2022/11/24 00:26:53;;;;;;;78.00;30.10;;;;;;;-0.82;89.86;99534.16;103263;1300;26470;-59
2022/11/24 00:29:26;;;;;;;68.00;28.00;;;;;;;-0.82;90.10;99535.10;103133;1275;24248;-60
2022/11/24 00:32:01;;;;;;;62.30;28.50;;;;;;;-0.83;89.93;99537.23;103107;1279;23083;-59
2022/11/24 00:34:33;;;;;;;65.90;28.10;;;;;;;-0.83;89.97;99543.01;103078;1306;22608;-61
2022/11/24 00:37:05;;;;;;;73.30;29.40;;;;;;;-0.83;89.88;99548.27;103247;1306;24313;-59
2022/11/24 00:39:37;;;;;;;73.50;27.20;;;;;;;-0.85;89.75;99551.67;103152;1301;24314;-57
2022/11/24 00:42:08;;;;;;;68.70;27.20;;;;;;;-0.88;89.77;99550.16;103190;1287;25319;-60
2022/11/24 00:44:40;;;;;;;59.90;25.90;;;;;;;-0.88;89.96;99548.66;103110;1282;22613;-57
2022/11/24 00:47:13;;;;;;;68.60;28.90;;;;;;;-0.88;90.08;99546.95;103154;1282;22521;-59
2022/11/24 00:49:44;;;;;;;62.10;26.40;;;;;;;-0.90;89.91;99548.95;103193;1282;25290;-58
2022/11/24 00:52:16;;;;;;;61.00;25.80;;;;;;;-0.90;90.28;99545.34;103226;1283;22710;-57
2022/11/24 00:54:47;;;;;;;62.10;26.50;;;;;;;-0.89;90.43;99544.23;103294;1306;22665;-60
2022/11/24 00:57:18;;;;;;;61.50;26.00;;;;;;;-0.88;90.41;99544.05;103212;1285;25351;-59
2022/11/24 00:59:50;;;;;;;71.30;29.20;;;;;;;-0.87;90.29;99542.33;103213;1300;22609;-59
2022/11/24 01:02:22;;;;;;;68.50;28.80;;;;;;;-0.87;90.29;99535.52;103065;1275;24499;-61
2022/11/24 01:04:54;;;;;;;65.20;27.30;;;;;;;-0.86;90.27;99542.69;103151;1299;24283;-58
2022/11/24 01:07:25;;;;;;;69.70;29.20;;;;;;;-0.86;90.39;99544.73;103167;1274;25674;-58
2022/11/24 01:09:57;;;;;;;75.30;32.50;;;;;;;-0.87;90.30;99543.48;103234;1300;24321;-56
2022/11/24 01:12:29;;;;;;;67.90;29.90;;;;;;;-0.87;90.32;99540.11;103126;1282;22465;-61
2022/11/24 01:15:01;;;;;;;78.50;33.90;;;;;;;-0.85;90.49;99542.90;103320;1282;24262;-58
2022/11/24 01:17:33;;;;;;;69.50;29.40;;;;;;;-0.84;90.66;99546.80;103067;1282;26435;-57
2022/11/24 01:20:04;;;;;;;73.40;30.80;;;;;;;-0.83;90.51;99549.36;103249;1274;22574;-59
2022/11/24 01:22:37;;;;;;;70.40;31.10;;;;;;;-0.85;90.37;99545.33;103193;1282;25264;-60
2022/11/24 01:25:11;;;;;;;77.80;30.20;;;;;;;-0.86;90.54;99543.08;103187;1305;24320;-62
2022/11/24 01:27:44;;;;;;;74.20;31.80;;;;;;;-0.85;90.68;99539.52;103327;1306;25365;-59
2022/11/24 01:30:16;;;;;;;72.40;32.20;;;;;;;-0.85;90.55;99536.33;103121;1282;22563;-58
2022/11/24 01:32:48;;;;;;;78.50;34.00;;;;;;;-0.83;90.70;99539.74;103181;1274;22544;-59
2022/11/24 01:35:20;;;;;;;84.20;34.40;;;;;;;-0.82;90.60;99540.90;103222;1276;25276;-61
2022/11/24 01:37:52;;;;;;;76.60;33.10;;;;;;;-0.81;90.62;99546.67;103221;1274;22858;-62
2022/11/24 01:40:23;;;;;;;80.60;33.80;;;;;;;-0.80;90.62;99548.61;103210;1282;25364;-58
2022/11/24 01:42:55;;;;;;;85.70;35.50;;;;;;;-0.81;90.67;99551.69;103291;1304;26450;-59
2022/11/24 01:45:33;;;;;;;80.00;34.60;;;;;;;-0.79;90.78;99557.14;103189;1282;24338;-57
2022/11/24 01:51:15;;;;;;;84.00;32.00;;;;;;;-0.78;90.62;99557.42;102728;1311;22465;-57
2022/11/24 01:53:52;;;;;;;86.00;33.50;;;;;;;-0.76;90.80;99558.09;102780;1288;22536;-58
2022/11/24 01:56:24;;;;;;;74.00;30.00;;;;;;;-0.75;90.80;99554.55;102772;1310;22484;-57
2022/11/24 01:58:58;;;;;;;76.60;32.10;;;;;;;-0.75;90.89;99554.01;102910;1276;22576;-61
2022/11/24 02:01:30;;;;;;;76.60;30.60;;;;;;;-0.74;91.02;99556.17;102759;1281;22878;-58
2022/11/24 02:04:09;;;;;;;80.40;31.00;;;;;;;-0.74;90.95;99559.39;102895;1310;22474;-59
2022/11/24 02:06:43;;;;;;;76.80;31.20;;;;;;;-0.74;91.12;99556.98;102781;1290;25299;-56
2022/11/24 02:09:21;;;;;;;76.80;30.40;;;;;;;-0.75;91.05;99560.66;102901;1300;24229;-59
2022/11/24 02:11:54;;;;;;;72.90;31.30;;;;;;;-0.75;91.22;99558.79;102823;1288;22505;-57
2022/11/24 02:14:27;;;;;;;78.70;32.70;;;;;;;-0.75;91.33;99554.71;102888;1288;22487;-61
2022/11/24 02:16:59;;;;;;;88.20;35.00;;;;;;;-0.74;91.34;99552.56;102797;1287;22530;-60
2022/11/24 02:19:42;;;;;;;80.20;34.50;;;;;;;-0.72;91.40;99559.83;102915;1287;22515;-60
2022/11/24 02:22:18;;;;;;;88.30;36.70;;;;;;;-0.72;91.37;99558.11;102961;1283;22877;-56
2022/11/24 02:24:55;;;;;;;88.70;34.80;;;;;;;-0.70;91.53;99557.83;103229;1285;22610;-57
2022/11/24 02:27:27;;;;;;;95.30;37.80;;;;;;;-0.68;91.54;99552.87;103353;1275;22615;-59
2022/11/24 02:30:00;;;;;;;95.60;37.60;;;;;;;-0.67;91.68;99554.25;103254;1278;22506;-58
2022/11/24 02:32:34;;;;;;;92.10;39.30;;;;;;;-0.66;91.60;99551.40;103141;1306;25332;-59
2022/11/24 02:35:07;;;;;;;96.90;38.90;;;;;;;-0.65;91.59;99549.75;103143;1306;22514;-61
2022/11/24 02:37:39;;;;;;;98.40;39.20;;;;;;;-0.64;91.74;99547.67;103125;1282;25359;-61
2022/11/24 02:40:14;;;;;;;93.50;38.60;;;;;;;-0.63;91.67;99547.67;103166;1278;28760;-62
2022/11/24 02:42:47;;;;;;;90.10;40.50;;;;;;;-0.61;91.77;99545.52;103187;1282;24278;-59
2022/11/24 02:45:20;;;;;;;96.00;39.40;;;;;;;-0.59;91.92;99539.92;103137;1292;25463;-59
2022/11/24 02:47:51;;;;;;;98.10;39.20;;;;;;;-0.59;91.86;99541.33;103177;1275;25685;-59
2022/11/24 02:50:24;;;;;;;87.00;36.20;;;;;;;-0.57;91.88;99539.96;103035;1306;22538;-58
2022/11/24 02:52:55;;;;;;;84.00;36.90;;;;;;;-0.56;92.05;99538.76;103171;1274;22552;-60
2022/11/24 02:55:27;;;;;;;89.60;37.20;;;;;;;-0.55;92.05;99545.25;103162;1282;22517;-60
2022/11/24 02:57:58;;;;;;;94.90;39.60;;;;;;;-0.53;92.07;99546.63;103181;1305;25622;-59
2022/11/24 03:00:30;;;;;;;96.00;40.00;;;;;;;-0.51;92.17;99546.51;103385;1285;25716;-59
2022/11/24 03:03:01;;;;;;;93.30;38.40;;;;;;;-0.48;92.21;99551.31;103209;1306;22489;-61
2022/11/24 03:05:33;;;;;;;91.60;39.30;;;;;;;-0.46;92.18;99557.45;103261;1305;22468;-61
2022/11/24 03:08:05;;;;;;;88.20;37.50;;;;;;;-0.45;92.20;99560.96;103132;1281;24219;-58
2022/11/24 03:10:37;;;;;;;85.00;35.80;;;;;;;-0.43;92.25;99562.56;103141;1281;24434;-59
2022/11/24 03:13:09;;;;;;;88.90;39.40;;;;;;;-0.41;92.27;99565.20;103128;1277;23871;-61
2022/11/24 03:15:41;;;;;;;92.50;38.90;;;;;;;-0.40;92.27;99560.94;103097;1287;25542;-61
2022/11/24 03:18:12;;;;;;;86.20;36.00;;;;;;;-0.39;92.22;99562.55;103160;1298;22516;-59
2022/11/24 03:20:44;;;;;;;87.20;37.90;;;;;;;-0.38;92.28;99562.06;103198;1291;22686;-59
2022/11/24 03:23:16;;;;;;;87.50;36.90;;;;;;;-0.36;92.33;99560.86;103155;1277;22483;-58
2022/11/24 03:25:48;;;;;;;89.90;39.30;;;;;;;-0.34;92.32;99566.23;103256;1282;22484;-60
2022/11/24 03:28:21;;;;;;;82.40;34.90;;;;;;;-0.32;92.34;99569.72;103302;1306;24295;-58
2022/11/24 03:30:54;;;;;;;87.10;37.70;;;;;;;-0.31;92.36;99575.58;103164;1305;22479;-61
2022/11/24 03:33:26;;;;;;;76.40;34.90;;;;;;;-0.29;92.45;99575.69;103151;1282;24232;-58
2022/11/24 03:35:58;;;;;;;87.00;36.80;;;;;;;-0.28;92.39;99574.71;103094;1280;22477;-60
2022/11/24 03:38:29;;;;;;;82.90;36.60;;;;;;;-0.24;92.46;99574.19;103149;1282;24436;-60
2022/11/24 03:41:01;;;;;;;79.00;33.90;;;;;;;-0.24;92.40;99577.30;103069;1296;22470;-60
2022/11/24 03:43:33;;;;;;;85.10;34.70;;;;;;;-0.23;92.43;99573.60;103205;1306;24086;-60
2022/11/24 03:46:04;;;;;;;68.30;30.50;;;;;;;-0.22;92.42;99576.88;103174;1305;22471;-59
2022/11/24 03:48:45;;;;;;;80.80;32.80;;;;;;;-0.21;92.39;99576.54;103267;1275;23802;-58
2022/11/24 03:51:15;;;;;;;;;;;;;;;-0.20;92.46;99581.07;103152;1305;22440;-60
2022/11/24 03:53:48;;;;;;;68.40;30.80;;;;;;;-0.21;92.51;99584.29;103243;1274;24214;-60
2022/11/24 03:56:19;;;;;;;75.80;32.70;;;;;;;-0.20;92.53;99586.54;103213;1281;22486;-60
2022/11/24 03:58:51;;;;;;;82.50;34.90;;;;;;;-0.20;92.72;99585.05;103275;1282;24296;-59
2022/11/24 04:01:23;;;;;;;73.90;31.30;;;;;;;-0.17;92.89;99589.86;103224;1282;23983;-60
2022/11/24 04:03:55;;;;;;;82.30;33.00;;;;;;;-0.16;92.77;99589.44;103157;1306;22484;-58
2022/11/24 04:06:26;;;;;;;81.80;33.50;;;;;;;-0.16;92.78;99594.00;103164;1282;25342;-58
2022/11/24 04:08:59;;;;;;;75.20;31.60;;;;;;;-0.16;92.70;99588.92;103158;1298;22483;-61
2022/11/24 04:14:20;;;;;;;76.60;30.90;;;;;;;-0.14;92.85;99596.08;103135;1282;22596;-60
2022/11/24 04:16:52;;;;;;;71.30;30.80;;;;;;;-0.12;92.91;99594.48;103114;1306;22463;-59
2022/11/24 04:19:24;;;;;;;70.60;29.80;;;;;;;-0.11;92.93;99590.77;103171;1284;24443;-57
2022/11/24 04:21:56;;;;;;;77.30;32.80;;;;;;;-0.10;92.85;99595.44;103233;1278;25430;-61
2022/11/24 04:24:27;;;;;;;73.40;31.60;;;;;;;-0.08;92.91;99601.20;103309;1281;22464;-58
2022/11/24 04:26:59;;;;;;;69.90;31.30;;;;;;;-0.08;92.98;99597.21;103112;1291;22462;-57
2022/11/24 04:29:30;;;;;;;69.00;30.80;;;;;;;-0.07;92.95;99595.92;103079;1288;22484;-60
2022/11/24 04:32:02;;;;;;;71.30;32.00;;;;;;;-0.06;92.94;99595.83;103202;1280;24540;-57
2022/11/24 04:34:33;;;;;;;76.90;32.70;;;;;;;-0.08;92.89;99595.08;103135;1306;25365;-59
2022/11/24 04:37:05;;;;;;;80.90;32.30;;;;;;;-0.07;92.97;99598.36;103122;1306;24385;-62
2022/11/24 04:39:37;;;;;;;81.90;34.20;;;;;;;-0.07;93.10;99601.19;103207;1282;22592;-58
2022/11/24 04:42:09;;;;;;;85.30;34.90;;;;;;;-0.05;93.18;99611.27;103206;1306;25368;-62
2022/11/24 04:44:41;;;;;;;82.40;34.10;;;;;;;-0.05;93.14;99612.52;103209;1282;22593;-59
2022/11/24 04:47:18;;;;;;;85.70;35.60;;;;;;;-0.03;93.17;99618.59;103149;1282;25293;-58
2022/11/24 04:49:51;;;;;;;90.10;39.40;;;;;;;-0.02;93.37;99623.34;103241;1275;22699;-57
2022/11/24 04:52:24;;;;;;;88.40;40.30;;;;;;;-0.01;93.22;99625.45;103176;1274;22463;-58
2022/11/24 04:54:55;;;;;;;95.80;44.50;;;;;;;0.01;93.23;99636.55;103229;1291;23082;-61
2022/11/24 04:57:27;;;;;;;102.30;45.40;;;;;;;0.01;93.25;99642.11;103373;1282;25299;-58
2022/11/24 04:59:59;;;;;;;94.00;44.80;;;;;;;0.03;93.34;99647.09;103223;1282;26856;-59
2022/11/24 05:02:30;;;;;;;94.50;44.10;;;;;;;0.05;93.41;99641.64;103319;1281;22460;-59
2022/11/24 05:05:02;;;;;;;99.50;45.90;;;;;;;0.07;93.40;99641.68;103248;1306;22476;-62
2022/11/24 05:07:34;;;;;;;109.50;44.00;;;;;;;0.09;93.37;99643.84;103368;1306;22718;-58
2022/11/24 05:13:11;;;;;;;97.20;43.10;;;;;;;0.11;93.41;99646.94;102880;1277;22478;-59
2022/11/24 05:15:43;;;;;;;97.80;42.90;;;;;;;0.12;93.38;99650.05;102847;1309;22487;-61
2022/11/24 05:18:15;;;;;;;102.30;44.80;;;;;;;0.13;93.34;99652.06;102889;1287;22598;-60
2022/11/24 05:20:48;;;;;;;103.10;43.80;;;;;;;0.13;93.38;99655.11;103008;1280;25283;-59
2022/11/24 05:23:20;;;;;;;97.30;39.20;;;;;;;0.16;93.36;99659.07;102958;1309;22501;-56
2022/11/24 05:25:52;;;;;;;97.30;43.60;;;;;;;0.16;93.29;99657.02;102767;1287;22477;-58
2022/11/24 05:28:23;;;;;;;92.10;40.50;;;;;;;0.17;93.24;99657.23;102874;1288;22497;-61
2022/11/24 05:30:58;;;;;;;85.20;37.80;;;;;;;0.17;93.24;99660.20;102879;1300;22692;-60
2022/11/24 05:33:32;;;;;;;90.90;38.10;;;;;;;0.16;93.21;99657.48;103079;1287;24784;-59
2022/11/24 05:36:05;;;;;;;84.50;35.60;;;;;;;0.16;93.17;99657.02;102923;1295;22485;-60
2022/11/24 05:38:37;;;;;;;89.60;38.90;;;;;;;0.14;93.21;99658.15;103027;1285;25379;-68
2022/11/24 05:41:09;;;;;;;87.40;38.10;;;;;;;0.14;93.14;99657.77;102900;1288;22898;-60
2022/11/24 05:43:40;;;;;;;86.30;36.30;;;;;;;0.13;93.07;99665.00;103054;1288;22476;-59
2022/11/24 05:46:13;;;;;;;90.50;37.70;;;;;;;0.13;93.14;99666.72;103009;1308;27331;-58
2022/11/24 05:48:45;;;;;;;81.10;37.40;;;;;;;0.13;93.05;99667.42;103116;1306;22521;-58
2022/11/24 05:51:16;;;;;;;78.00;35.40;;;;;;;0.13;93.02;99677.16;103219;1282;22528;-59
2022/11/24 05:53:48;;;;;;;81.90;36.80;;;;;;;0.12;93.09;99679.60;103404;1305;22482;-59
2022/11/24 05:56:20;;;;;;;83.50;36.40;;;;;;;0.13;93.10;99677.46;103968;1306;22578;-59
2022/11/24 05:58:51;;;;;;;88.60;40.10;;;;;;;0.11;93.03;99677.83;103129;1278;22519;-59
2022/11/24 06:01:22;;;;;;;82.80;38.40;;;;;;;0.09;93.11;99681.69;103242;1278;22588;-60
2022/11/24 06:03:54;;;;;;;85.50;36.40;;;;;;;0.09;93.07;99680.13;103181;1306;22487;-58
2022/11/24 06:06:26;;;;;;;84.00;38.00;;;;;;;0.08;93.14;99685.80;103308;1287;26473;-60
2022/11/24 06:08:57;;;;;;;81.20;35.10;;;;;;;0.09;93.19;99689.45;103106;1306;22788;-58
2022/11/24 06:11:29;;;;;;;77.50;34.80;;;;;;;0.10;93.20;99691.49;102964;1306;25492;-62
2022/11/24 06:14:01;;;;;;;77.50;34.50;;;;;;;0.10;93.27;99692.98;103161;1300;25471;-59
2022/11/24 06:16:32;;;;;;;83.10;37.30;;;;;;;0.08;93.28;99697.02;103211;1282;24183;-59
2022/11/24 06:19:03;;;;;;;90.70;39.90;;;;;;;0.09;93.39;99696.52;103070;1306;22566;-59
2022/11/24 06:21:35;;;;;;;93.10;39.70;;;;;;;0.11;93.37;99696.48;103264;1288;22471;-58
2022/11/24 06:24:07;;;;;;;88.70;39.60;;;;;;;0.11;93.40;99702.98;103184;1298;22496;-58
2022/11/24 06:26:39;;;;;;;95.10;37.90;;;;;;;0.13;93.47;99708.76;103309;1281;25400;-58
2022/11/24 06:29:11;;;;;;;92.20;39.80;;;;;;;0.12;93.46;99711.67;103118;1287;24208;-56
2022/11/24 06:31:42;;;;;;;96.40;40.30;;;;;;;0.13;93.58;99717.30;103167;1277;22474;-58
2022/11/24 06:34:14;;;;;;;93.80;42.90;;;;;;;0.14;93.60;99721.21;103112;1284;22534;-57
2022/11/24 06:36:47;;;;;;;107.80;47.00;;;;;;;0.16;93.59;99723.91;102408;1304;1279447;-59
2022/11/24 06:39:18;;;;;;;100.10;42.20;;;;;;;0.19;93.76;99728.71;103170;1282;22510;-61
2022/11/24 06:41:51;;;;;;;95.50;43.30;;;;;;;0.22;93.69;99734.15;103140;1280;25220;-59
2022/11/24 06:44:24;;;;;;;105.70;44.80;;;;;;;0.24;93.67;99743.75;103175;1281;22592;-59
2022/11/24 06:46:56;;;;;;;91.10;42.70;;;;;;;0.23;93.60;99746.98;103136;1285;25591;-59
2022/11/24 06:49:28;;;;;;;90.50;42.30;;;;;;;0.22;93.65;99749.45;103127;1281;22683;-58
2022/11/24 06:52:00;;;;;;;93.60;42.30;;;;;;;0.22;93.75;99756.59;103201;1275;23182;-58
2022/11/24 06:54:31;;;;;;;97.40;41.10;;;;;;;0.22;93.82;99759.56;103274;1282;22476;-61
2022/11/24 06:57:03;;;;;;;96.00;42.30;;;;;;;0.23;93.91;99761.83;103085;1306;22561;-60
2022/11/24 06:59:34;;;;;;;95.50;42.70;;;;;;;0.26;94.07;99764.98;103082;1291;22470;-58
2022/11/24 07:02:06;;;;;;;89.50;39.50;;;;;;;0.26;94.06;99771.33;103175;1281;22470;-60
2022/11/24 07:04:37;;;;;;;93.20;38.40;;;;;;;0.25;94.06;99771.59;103216;1306;22528;-59
2022/11/24 07:07:09;;;;;;;87.00;37.10;;;;;;;0.24;94.24;99777.40;103115;1306;24220;-61
2022/11/24 07:09:40;;;;;;;87.90;38.00;;;;;;;0.23;94.23;99780.65;103181;1282;22594;-59
2022/11/24 07:12:13;;;;;;;88.20;38.00;;;;;;;0.23;94.43;99785.89;103105;1288;22889;-59
2022/11/24 07:14:45;;;;;;;104.70;42.50;;;;;;;0.26;94.44;99785.45;103231;1306;24819;-61
2022/11/24 07:17:17;;;;;;;98.00;42.70;;;;;;;0.27;94.56;99790.61;103177;1306;25505;-59
2022/11/24 07:19:48;;;;;;;100.80;42.90;;;;;;;0.29;94.62;99795.17;103184;1306;22472;-60
2022/11/24 07:22:20;;;;;;;109.10;46.70;;;;;;;0.30;94.75;99798.62;103232;1301;22467;-59
2022/11/24 07:24:51;;;;;;;109.20;44.30;;;;;;;0.34;94.91;99800.11;103230;1306;26577;-60
2022/11/24 07:27:24;;;;;;;104.50;42.50;;;;;;;0.39;94.94;99802.86;103144;1281;25310;-56
2022/11/24 07:29:55;;;;;;;105.30;40.80;;;;;;;0.41;94.85;99802.10;103133;1282;24422;-55
2022/11/24 07:32:29;;;;;;;98.40;41.80;;;;;;;0.45;95.07;99812.08;103248;1307;22482;-59
2022/11/24 07:35:00;;;;;;;92.60;39.40;;;;;;;0.48;95.00;99811.16;103265;1291;22483;-57
2022/11/24 07:37:32;;;;;;;112.00;44.60;;;;;;;0.45;94.92;99810.04;103168;1282;23735;-58
2022/11/24 07:40:04;;;;;;;113.20;48.00;;;;;;;0.45;95.12;99818.66;103182;1284;22491;-58
2022/11/24 07:42:36;;;;;;;136.90;59.80;;;;;;;0.47;95.23;99814.92;103307;1281;22607;-64
2022/11/24 07:45:09;;;;;;;142.10;58.40;;;;;;;0.48;95.16;99816.27;103281;1281;22469;-58
2022/11/24 07:47:42;;;;;;;132.00;56.60;;;;;;;0.47;95.25;99811.66;103163;1284;24376;-58
2022/11/24 07:50:14;;;;;;;133.90;53.20;;;;;;;0.49;95.37;99814.59;103138;1291;22491;-59
2022/11/24 07:52:45;;;;;;;131.70;50.80;;;;;;;0.53;95.55;99815.07;103243;1307;24381;-62
2022/11/24 07:55:17;;;;;;;129.10;50.40;;;;;;;0.54;95.65;99815.82;103151;1284;22473;-59
2022/11/24 07:57:49;;;;;;;130.20;48.00;;;;;;;0.52;95.67;99814.14;103139;1306;22585;-58
2022/11/24 08:00:21;;;;;;;153.70;56.50;;;;;;;0.49;95.72;99817.73;103205;1282;22480;-59
2022/11/24 08:02:53;;;;;;;146.60;59.10;;;;;;;0.48;95.80;99810.91;103107;1304;22615;-58
2022/11/24 08:05:25;;;;;;;143.90;53.90;;;;;;;0.47;95.88;99809.61;103319;1275;24321;-59
2022/11/24 08:07:59;;;;;;;132.90;50.80;;;;;;;0.46;95.96;99814.16;103124;1284;22560;-61
2022/11/24 08:10:31;;;;;;;131.40;50.40;;;;;;;0.47;96.14;99816.58;103108;1283;22470;-58
2022/11/24 08:13:03;;;;;;;138.60;52.50;;;;;;;0.48;96.21;99816.41;103178;1305;23276;-61
2022/11/24 08:15:35;;;;;;;144.20;53.10;;;;;;;0.53;96.30;99817.11;103245;1280;25315;-59
2022/11/24 08:18:07;;;;;;;146.10;54.70;;;;;;;0.58;96.43;99814.96;103432;1287;22478;-58
2022/11/24 08:20:39;;;;;;;142.00;53.70;;;;;;;0.65;96.55;99806.81;103179;1286;22465;-61
2022/11/24 08:23:12;;;;;;;143.40;56.20;;;;;;;0.71;96.44;99805.98;103252;1282;24337;-57
2022/11/24 08:25:44;;;;;;;147.30;57.90;;;;;;;0.76;96.44;99808.64;103258;1283;22616;-57
2022/11/24 08:28:17;;;;;;;146.60;54.70;;;;;;;0.82;96.54;99812.13;103195;1287;22603;-60
2022/11/24 08:30:48;;;;;;;153.80;60.10;;;;;;;0.88;96.52;99811.61;103241;1288;24311;-57
2022/11/24 08:33:20;;;;;;;149.50;55.30;;;;;;;0.94;96.55;99815.74;103144;1298;22522;-58
2022/11/24 08:35:51;;;;;;;143.30;55.30;;;;;;;0.97;96.60;99817.16;103165;1306;25369;-60
2022/11/24 08:38:23;;;;;;;147.10;51.60;;;;;;;1.02;96.65;99819.80;103186;1312;25502;-59
2022/11/24 08:40:55;;;;;;;140.10;51.80;;;;;;;1.06;96.46;99818.45;103135;1307;23726;-58
2022/11/24 08:43:26;;;;;;;121.70;49.20;;;;;;;1.11;96.50;99824.09;103129;1280;22474;-58
2022/11/24 08:46:01;;;;;;;122.10;47.40;;;;;;;1.15;96.58;99828.33;103195;1285;26018;-60
2022/11/24 08:48:34;;;;;;;124.40;49.40;;;;;;;1.20;96.71;99830.03;103250;1287;22468;-60
2022/11/24 08:51:11;;;;;;;124.70;47.50;;;;;;;1.23;96.65;99835.67;103217;1283;25285;-60
2022/11/24 08:53:43;;;;;;;131.00;48.60;;;;;;;1.27;96.63;99839.70;103171;1310;22853;-59
2022/11/24 08:56:15;;;;;;;115.90;46.20;;;;;;;1.31;96.66;99844.63;103105;1281;22601;-57
2022/11/24 08:58:47;;;;;;;135.20;48.60;;;;;;;1.35;96.68;99844.86;103249;1283;22474;-56
2022/11/24 09:01:19;;;;;;;125.70;48.20;;;;;;;1.39;96.81;99849.80;103149;1305;22531;-61
2022/11/24 09:03:51;;;;;;;133.00;48.40;;;;;;;1.40;96.84;99848.50;103154;1310;22496;-58
2022/11/24 09:06:25;;;;;;;121.60;46.70;;;;;;;1.41;96.77;99854.30;103084;1288;22441;-58
2022/11/24 09:08:57;;;;;;;126.10;48.50;;;;;;;1.44;96.91;99855.42;103168;1281;22473;-60
2022/11/24 09:11:29;;;;;;;126.60;44.60;;;;;;;1.47;97.12;99856.77;103188;1288;22557;-57
2022/11/24 09:14:01;;;;;;;101.10;36.10;;;;;;;1.52;97.15;99859.27;103221;1281;22706;-60
2022/11/24 09:16:32;;;;;;;120.40;38.20;;;;;;;1.53;97.09;99855.29;103085;1280;22503;-58
2022/11/24 09:19:06;;;;;;;113.10;41.70;;;;;;;1.55;97.12;99855.48;103104;1313;24225;-59
2022/11/24 09:21:39;;;;;;;111.50;37.90;;;;;;;1.58;97.14;99855.20;103242;1304;24391;-57
2022/11/24 09:24:11;;;;;;;114.60;37.00;;;;;;;1.61;97.30;99859.91;103187;1281;22470;-58
2022/11/24 09:26:44;;;;;;;94.80;34.60;;;;;;;1.64;97.39;99856.67;103142;1308;24209;-61
2022/11/24 09:29:16;;;;;;;106.40;38.50;;;;;;;1.68;97.15;99863.21;103226;1297;22484;-61
2022/11/24 09:31:47;;;;;;;106.70;37.80;;;;;;;1.72;97.14;99864.06;103125;1283;22863;-61
2022/11/24 09:34:19;;;;;;;108.20;38.00;;;;;;;1.74;97.11;99863.38;103116;1290;22557;-63
2022/11/24 09:36:50;;;;;;;95.60;35.40;;;;;;;1.77;97.26;99868.67;103012;1312;25559;-59
2022/11/24 09:39:25;;;;;;;104.30;37.60;;;;;;;1.78;97.20;99869.12;103155;1287;24310;-59
2022/11/24 09:42:08;;;;;;;100.20;37.50;;;;;;;1.78;97.15;99872.17;103275;1281;25305;-60
2022/11/24 09:45:06;;;;;;;92.50;33.80;;;;;;;1.81;97.31;99871.09;103131;1310;25302;-58
2022/11/24 09:47:50;;;;;;;94.30;35.20;;;;;;;1.85;97.45;99871.70;103209;1282;22470;-58
2022/11/24 09:50:24;;;;;;;90.80;32.50;;;;;;;1.92;97.66;99873.83;103098;1281;22471;-58
2022/11/24 09:53:00;;;;;;;94.00;34.60;;;;;;;1.94;97.31;99869.77;103052;1283;22478;-58
2022/11/24 09:55:39;;;;;;;90.60;33.50;;;;;;;1.97;97.41;99868.20;102976;1288;24024;-62
2022/11/24 09:58:18;;;;;;;93.40;34.20;;;;;;;2.02;97.57;99867.60;103100;1287;24272;-58
2022/11/24 10:00:53;;;;;;;98.80;38.10;;;;;;;2.07;97.55;99867.00;103095;1313;23801;-59
2022/11/24 10:03:29;;;;;;;101.80;37.70;;;;;;;2.13;97.66;99864.66;103271;1281;24321;-63
2022/11/24 10:06:04;;;;;;;99.60;36.80;;;;;;;2.18;97.75;99867.66;103308;1313;23034;-59
2022/11/24 10:09:03;;;;;;;96.40;35.70;;;;;;;2.23;97.66;99864.73;103183;1281;25181;-57
2022/11/24 10:11:43;;;;;;;91.60;35.10;;;;;;;2.28;97.45;99867.35;102779;1281;22473;-56
2022/11/24 10:14:32;;;;;;;99.10;38.20;;;;;;;2.31;97.28;99867.58;102836;1288;24321;-57
2022/11/24 10:17:18;;;;;;;91.70;35.00;;;;;;;2.33;97.07;99863.59;102754;1288;22608;-56
2022/11/24 10:19:56;;;;;;;94.90;38.20;;;;;;;2.33;96.85;99859.66;102856;1294;24240;-57
2022/11/24 10:22:41;;;;;;;110.40;42.00;;;;;;;2.33;96.84;99859.83;102841;1310;22504;-57
2022/11/24 10:25:22;;;;;;;95.60;37.90;;;;;;;2.35;96.84;99858.65;102790;1288;22507;-54
2022/11/24 10:27:55;;;;;;;;;;;;;;;2.37;96.77;99859.23;102875;1311;22533;-57
2022/11/24 10:30:28;;;;;;;93.10;38.90;;;;;;;2.40;96.80;99862.67;102783;1289;25451;-53
2022/11/24 10:33:04;;;;;;;99.50;39.10;;;;;;;2.44;96.95;99858.18;102805;1290;22491;-55
2022/11/24 10:35:44;;;;;;;92.80;38.00;;;;;;;2.49;96.85;99862.30;102727;1287;22500;-54
2022/11/24 10:38:30;;;;;;;96.80;39.20;;;;;;;2.51;96.71;99860.69;102791;1288;22506;-55
2022/11/24 10:41:07;;;;;;;87.40;35.70;;;;;;;2.51;96.43;99859.67;102766;1287;24380;-55
2022/11/24 10:43:41;;;;;;;99.80;42.40;;;;;;;2.50;96.49;99864.96;102802;1284;25354;-54
2022/11/24 10:46:15;;;;;;;103.70;41.80;;;;;;;2.55;96.90;99863.65;102901;1287;26587;-57
2022/11/24 10:48:51;;;;;;;103.50;42.40;;;;;;;2.61;96.81;99865.23;102982;1296;22747;-56
2022/11/24 10:51:41;;;;;;;106.40;43.30;;;;;;;2.65;96.67;99865.98;103065;1274;25306;-55
2022/11/24 10:54:18;;;;;;;107.10;45.00;;;;;;;2.71;96.73;99869.43;103079;1305;22831;-54
2022/11/24 10:56:52;;;;;;;98.50;41.20;;;;;;;2.76;96.62;99870.88;103131;1281;25274;-54
2022/11/24 10:59:36;;;;;;;95.40;39.50;;;;;;;2.79;96.61;99866.86;103213;1282;22503;-58
2022/11/24 11:02:30;;;;;;;107.90;44.90;;;;;;;2.85;96.71;99862.12;103127;1281;22485;-56
2022/11/24 11:05:41;;;;;;;98.70;41.60;;;;;;;2.92;96.62;99860.34;103110;1284;22511;-56
2022/11/24 11:08:19;;;;;;;103.90;43.20;;;;;;;2.99;96.48;99859.13;103177;1306;25340;-57
2022/11/24 11:11:11;;;;;;;101.70;42.80;;;;;;;3.01;96.17;99855.06;103190;1283;22543;-56
2022/11/24 11:13:54;;;;;;;107.30;46.60;;;;;;;3.03;96.25;99861.37;103241;1299;22473;-55
2022/11/24 11:16:35;;;;;;;101.00;43.70;;;;;;;3.10;96.44;99862.91;103162;1281;24350;-59
2022/11/24 11:19:25;;;;;;;97.00;41.70;;;;;;;3.15;96.26;99864.27;103325;1281;22478;-57
2022/11/24 11:22:01;;;;;;;;;;;;;;;3.17;95.92;99867.83;103151;1306;24311;-57
2022/11/24 11:24:33;;;;;;;100.70;45.20;;;;;;;3.17;95.95;99869.80;103400;1282;26527;-57
2022/11/24 11:27:16;;;;;;;117.20;49.80;;;;;;;3.21;95.96;99875.29;103206;1281;24159;-57
2022/11/24 11:29:49;;;;;;;113.90;48.80;;;;;;;3.23;95.91;99873.02;103074;1281;22463;-58
2022/11/24 11:32:22;;;;;;;96.80;44.30;;;;;;;3.28;96.13;99865.06;103137;1281;22802;-57
2022/11/24 11:34:56;;;;;;;99.90;42.10;;;;;;;3.34;96.15;99863.80;103199;1274;25638;-57
2022/11/24 11:37:31;;;;;;;104.00;46.30;;;;;;;3.39;95.90;99865.54;103148;1290;22481;-60
2022/11/24 11:40:03;;;;;;;104.20;45.50;;;;;;;3.43;95.87;99870.52;103152;1282;22488;-57
2022/11/24 11:42:42;;;;;;;96.70;41.80;;;;;;;3.47;95.91;99873.24;103135;1306;22478;-58
2022/11/24 11:45:19;;;;;;;98.90;40.40;;;;;;;3.51;95.54;99873.14;103068;1294;24956;-57
2022/11/24 11:47:56;;;;;;;98.70;42.20;;;;;;;3.52;95.23;99873.67;103161;1287;22470;-57
2022/11/24 11:50:34;;;;;;;97.40;41.80;;;;;;;3.56;95.44;99871.01;103186;1281;22473;-55